Toledo/Metcalf Field, Ohio
Current Conditions -  °F | °C
As of 4:59 PM on Thursday 27 Nov 2014 (Local Time) from KTDZ Reporting Station
Light Snow Light Snow  
Wind Chill: 25°   Ceiling: 2600
Heat Index: 32°   Visibility: 4mi
Dew Point: 26°   Wind: 8mph
Humidity: 79%   Direction: 250°WSW
Pressure: 30.21"   Gusts: NA
Location:  41.56°N, 83.48°W
Report Text: KTDZ 272159Z AUTO 25007KT 4SM -SN FEW021 BKN026 OVC041 00/M03 A3021 RMK AO2 P0000 T00001033 TSNO
Loading
Personal Weather Stations






























Interactive Weather Map New forecast layout! Learn more

10-Day Weather Forecast

Advertisements
Track Severe Weather on mobile